Time;durP1;ratioP1;P1;durP2;ratioP2;P2;SDS_P1;SDS_P2;PMS_P1;PMS_P2;Temp;Humidity;BMP_temperature;BMP_pressure;BME280_temperature;BME280_humidity;BME280_pressure;Samples;Min_cycle;Max_cycle;Signal;HPM_P1;HPM_P2
2023/07/07 00:01:14;;;;;;;1.23;1.23;;;;;15.20;96344.00;;;;5053981;28;20608;-57
2023/07/07 00:03:41;;;;;;;18.63;1.47;;;;;15.10;96334.00;;;;5053658;28;20695;-57
2023/07/07 00:06:08;;;;;;;1.17;1.17;;;;;15.10;96329.00;;;;5053565;28;20591;-57
2023/07/07 00:08:36;;;;;;;0.60;0.60;;;;;14.90;96332.00;;;;5053761;28;20199;-57
2023/07/07 00:11:05;;;;;;;2.50;1.10;;;;;14.90;96335.00;;;;5053589;28;20238;-57
2023/07/07 00:13:33;;;;;;;0.90;0.90;;;;;14.90;96340.00;;;;5053780;28;20558;-57
2023/07/07 00:16:01;;;;;;;1.20;1.20;;;;;14.80;96334.00;;;;5053392;28;20212;-57
2023/07/07 00:18:29;;;;;;;1.00;1.00;;;;;14.80;96333.00;;;;5053530;28;20199;-57
2023/07/07 00:20:58;;;;;;;0.80;0.80;;;;;14.70;96327.00;;;;5051987;28;20647;-57
2023/07/07 00:23:26;;;;;;;0.80;0.80;;;;;14.80;96341.00;;;;5053544;28;20594;-57
2023/07/07 00:26:01;;;;;;;0.60;0.60;;;;;14.80;96328.00;;;;5053392;28;20208;-57
2023/07/07 00:28:31;;;;;;;0.90;0.90;;;;;14.80;96326.00;;;;5053847;28;20211;-57
2023/07/07 00:30:58;;;;;;;0.93;0.93;;;;;14.70;96329.00;;;;5053243;28;20192;-57
2023/07/07 00:33:26;;;;;;;0.60;0.60;;;;;14.70;96327.00;;;;5053228;28;20192;-57
2023/07/07 00:35:53;;;;;;;0.70;0.70;;;;;14.60;96328.00;;;;5053162;28;20212;-57
2023/07/07 00:38:22;;;;;;;0.87;0.83;;;;;14.70;96335.00;;;;5053468;28;20274;-56
2023/07/07 00:40:52;;;;;;;1.03;1.03;;;;;14.60;96336.00;;;;5053138;28;20200;-57
2023/07/07 00:43:21;;;;;;;1.27;1.17;;;;;14.60;96327.00;;;;5053293;28;20235;-59
2023/07/07 00:45:50;;;;;;;1.00;1.00;;;;;14.50;96328.00;;;;5053231;28;20212;-61
2023/07/07 00:48:21;;;;;;;1.00;1.00;;;;;14.40;96328.00;;;;5053262;28;20188;-56
2023/07/07 00:50:52;;;;;;;0.80;0.80;;;;;14.40;96331.00;;;;5053021;28;20234;-56
2023/07/07 00:53:21;;;;;;;0.93;0.93;;;;;14.40;96329.00;;;;5053274;28;20181;-57
2023/07/07 00:55:52;;;;;;;0.80;0.80;;;;;14.10;96322.00;;;;5052845;28;20322;-57
2023/07/07 00:58:23;;;;;;;1.00;1.00;;;;;14.10;96328.00;;;;5051488;28;20196;-56
2023/07/07 01:01:00;;;;;;;1.43;1.20;;;;;14.20;96332.00;;;;5053349;28;20181;-57
2023/07/07 01:03:32;;;;;;;1.07;1.07;;;;;14.20;96331.00;;;;5052962;28;20200;-56
2023/07/07 01:06:02;;;;;;;0.77;0.77;;;;;14.20;96329.00;;;;5052628;28;20224;-56
2023/07/07 01:08:30;;;;;;;0.60;0.60;;;;;14.10;96336.00;;;;5052692;28;20255;-57
2023/07/07 01:10:58;;;;;;;1.03;1.03;;;;;14.10;96338.00;;;;5052614;28;20199;-57
2023/07/07 01:13:25;;;;;;;1.57;1.17;;;;;14.20;96336.00;;;;5052578;28;20188;-56
2023/07/07 01:16:08;;;;;;;1.20;1.10;;;;;14.20;96330.00;;;;5052371;28;20238;-56
2023/07/07 01:18:42;;;;;;;0.70;0.70;;;;;14.20;96341.00;;;;5052965;28;20291;-57
2023/07/07 01:21:16;;;;;;;0.80;0.80;;;;;14.00;96333.00;;;;5052824;28;20184;-57
2023/07/07 01:24:18;;;;;;;0.97;0.97;;;;;14.00;96339.00;;;;5052604;28;20267;-57
2023/07/07 01:27:14;;;;;;;0.80;0.80;;;;;13.70;96332.00;;;;5052494;28;20211;-57
2023/07/07 01:29:59;;;;;;;1.00;1.00;;;;;13.90;96339.00;;;;5053387;28;20659;-57
2023/07/07 01:32:30;;;;;;;0.83;0.80;;;;;13.80;96338.00;;;;5052476;28;20631;-57
2023/07/07 01:35:00;;;;;;;1.00;1.00;;;;;13.90;96334.00;;;;5051154;28;20203;-57
2023/07/07 01:37:27;;;;;;;1.93;1.27;;;;;13.90;96329.00;;;;5053153;28;20188;-57
2023/07/07 01:39:56;;;;;;;0.60;0.60;;;;;13.80;96337.00;;;;5052712;28;20234;-57
2023/07/07 01:42:29;;;;;;;0.73;0.73;;;;;13.60;96332.00;;;;5052599;28;20212;-57
2023/07/07 01:45:04;;;;;;;0.83;0.83;;;;;13.60;96340.00;;;;5051049;28;20192;-56
2023/07/07 01:47:35;;;;;;;0.90;0.90;;;;;13.70;96331.00;;;;5052433;28;20180;-57
2023/07/07 01:50:08;;;;;;;0.57;0.57;;;;;13.80;96328.00;;;;5052636;28;20631;-57
2023/07/07 01:52:40;;;;;;;3.03;0.70;;;;;13.60;96329.00;;;;5052567;28;20569;-59
2023/07/07 01:55:14;;;;;;;0.73;0.73;;;;;13.60;96325.00;;;;5052245;28;20204;-57
2023/07/07 01:57:45;;;;;;;1.30;1.20;;;;;13.60;96326.00;;;;5052569;28;20184;-56
2023/07/07 02:00:15;;;;;;;0.70;0.70;;;;;13.60;96319.00;;;;5052812;28;20184;-56
2023/07/07 02:02:44;;;;;;;0.77;0.77;;;;;13.40;96321.00;;;;5052642;28;20231;-57
2023/07/07 02:05:13;;;;;;;0.90;0.90;;;;;13.40;96321.00;;;;5052127;28;20330;-56
2023/07/07 02:07:42;;;;;;;0.70;0.70;;;;;13.30;96331.00;;;;5052211;22;20247;-60
2023/07/07 02:10:10;;;;;;;1.33;1.23;;;;;13.30;96329.00;;;;5032175;28;20193;-59
2023/07/07 02:12:38;;;;;;;0.87;0.87;;;;;13.20;96321.00;;;;5032168;28;20190;-59
2023/07/07 02:15:06;;;;;;;1.43;1.13;;;;;13.30;96325.00;;;;5032079;28;20698;-59
2023/07/07 02:17:33;;;;;;;1.00;1.00;;;;;13.30;96321.00;;;;5032348;28;20216;-59
2023/07/07 02:20:03;;;;;;;1.27;1.23;;;;;13.20;96317.00;;;;5032423;28;20204;-60
2023/07/07 02:22:30;;;;;;;1.67;1.57;;;;;13.20;96329.00;;;;5032032;28;20271;-60
2023/07/07 02:24:58;;;;;;;0.90;0.90;;;;;13.20;96327.00;;;;5032387;28;20196;-59
2023/07/07 02:27:25;;;;;;;1.77;1.67;;;;;13.20;96322.00;;;;5033697;28;20333;-59
2023/07/07 02:29:53;;;;;;;0.80;0.80;;;;;13.10;96326.00;;;;5034282;28;20219;-59
2023/07/07 02:32:20;;;;;;;1.13;1.13;;;;;13.20;96323.00;;;;5035510;28;20197;-59
2023/07/07 02:34:48;;;;;;;0.93;0.93;;;;;13.10;96320.00;;;;5035406;28;20207;-59
2023/07/07 02:37:18;;;;;;;0.93;0.93;;;;;12.90;96326.00;;;;5035377;28;20274;-59
2023/07/07 02:39:46;;;;;;;0.40;0.40;;;;;12.90;96331.00;;;;5035644;28;20204;-59
2023/07/07 02:42:14;;;;;;;0.80;0.80;;;;;12.80;96331.00;;;;5035249;28;20197;-59
2023/07/07 02:44:42;;;;;;;0.80;0.80;;;;;12.80;96323.00;;;;5035319;28;20558;-59
2023/07/07 02:47:10;;;;;;;1.23;1.17;;;;;12.80;96328.00;;;;5035094;28;20581;-59
2023/07/07 02:49:37;;;;;;;0.80;0.80;;;;;12.90;96327.00;;;;5035415;28;20599;-60
2023/07/07 02:52:06;;;;;;;0.83;0.83;;;;;12.80;96326.00;;;;5035285;28;20202;-59
2023/07/07 02:54:35;;;;;;;0.90;0.90;;;;;12.90;96330.00;;;;5035238;28;20215;-59
2023/07/07 02:57:03;;;;;;;0.97;0.97;;;;;13.00;96319.00;;;;5034933;28;20212;-59
2023/07/07 02:59:30;;;;;;;0.93;0.93;;;;;12.90;96322.00;;;;5034933;28;20246;-59
2023/07/07 03:01:58;;;;;;;1.10;1.10;;;;;12.90;96324.00;;;;5034937;28;20216;-60
2023/07/07 03:04:26;;;;;;;0.80;0.80;;;;;12.90;96322.00;;;;5033549;28;20213;-59
2023/07/07 03:06:54;;;;;;;1.13;1.13;;;;;12.90;96331.00;;;;5034716;28;20224;-59
2023/07/07 03:09:22;;;;;;;1.07;0.90;;;;;12.90;96326.00;;;;5034838;28;20204;-59
2023/07/07 03:11:50;;;;;;;0.73;0.73;;;;;12.90;96325.00;;;;5034779;28;20268;-59
2023/07/07 03:14:18;;;;;;;0.70;0.70;;;;;12.80;96319.00;;;;5035061;28;20737;-59
2023/07/07 03:16:51;;;;;;;0.70;0.70;;;;;12.90;96325.00;;;;5034869;28;20213;-59
2023/07/07 03:19:28;;;;;;;0.70;0.70;;;;;12.80;96328.00;;;;5034894;28;20220;-59
2023/07/07 03:21:56;;;;;;;0.83;0.83;;;;;12.70;96321.00;;;;5035106;28;20219;-58
2023/07/07 03:24:23;;;;;;;0.90;0.90;;;;;12.50;96334.00;;;;5033097;28;20244;-58
2023/07/07 03:26:52;;;;;;;0.90;0.90;;;;;12.40;96334.00;;;;5034684;28;20223;-58
2023/07/07 03:29:19;;;;;;;1.00;1.00;;;;;12.30;96331.00;;;;5034683;28;20201;-59
2023/07/07 03:31:47;;;;;;;0.70;0.70;;;;;12.30;96333.00;;;;5034402;28;20197;-59
2023/07/07 03:34:15;;;;;;;0.87;0.87;;;;;12.30;96329.00;;;;5034367;28;20187;-58
2023/07/07 03:36:42;;;;;;;1.30;1.30;;;;;12.30;96330.00;;;;5034602;28;20217;-59
2023/07/07 03:39:10;;;;;;;1.23;1.13;;;;;12.40;96332.00;;;;5034543;28;20192;-59
2023/07/07 03:41:37;;;;;;;1.03;1.03;;;;;12.40;96339.00;;;;5034630;28;20235;-59
2023/07/07 03:44:06;;;;;;;1.43;1.43;;;;;12.40;96340.00;;;;5034106;28;20580;-59
2023/07/07 03:46:33;;;;;;;0.90;0.90;;;;;12.50;96346.00;;;;5034030;28;20209;-59
2023/07/07 03:49:01;;;;;;;0.70;0.70;;;;;12.50;96348.00;;;;5034376;28;20204;-59
2023/07/07 03:51:35;;;;;;;0.80;0.80;;;;;12.50;96341.00;;;;5033974;28;20672;-58
2023/07/07 03:54:03;;;;;;;0.60;0.60;;;;;12.40;96341.00;;;;5034767;28;20504;-59
2023/07/07 03:56:30;;;;;;;0.80;0.80;;;;;12.50;96346.00;;;;5034081;28;20231;-59
2023/07/07 03:58:58;;;;;;;1.57;1.47;;;;;12.40;96342.00;;;;5032533;28;20292;-59
2023/07/07 04:01:26;;;;;;;0.90;0.90;;;;;12.40;96349.00;;;;5033767;28;20193;-58
2023/07/07 04:03:55;;;;;;;0.70;0.70;;;;;12.30;96349.00;;;;5033675;28;20217;-59
2023/07/07 04:06:22;;;;;;;0.90;0.90;;;;;12.40;96351.00;;;;5033455;28;20217;-59
2023/07/07 04:08:50;;;;;;;1.67;1.57;;;;;12.50;96349.00;;;;5033627;28;20185;-59
2023/07/07 04:11:19;;;;;;;0.80;0.80;;;;;12.60;96348.00;;;;5033617;28;20223;-59
2023/07/07 04:13:49;;;;;;;1.00;1.00;;;;;12.50;96357.00;;;;5033814;28;20238;-59
2023/07/07 04:16:19;;;;;;;0.83;0.83;;;;;12.60;96351.00;;;;5033815;28;20579;-61
2023/07/07 04:18:48;;;;;;;0.83;0.83;;;;;12.70;96347.00;;;;5033935;28;20222;-59
2023/07/07 04:21:20;;;;;;;2.17;1.23;;;;;12.80;96348.00;;;;5033788;28;20263;-58
2023/07/07 04:23:49;;;;;;;0.80;0.80;;;;;12.90;96344.00;;;;5032259;28;20205;-60
2023/07/07 04:26:29;;;;;;;0.97;0.97;;;;;12.90;96348.00;;;;5033490;28;20227;-59
2023/07/07 04:29:01;;;;;;;1.00;1.00;;;;;13.00;96352.00;;;;5032810;28;20224;-60
2023/07/07 04:31:31;;;;;;;0.70;0.70;;;;;13.00;96342.00;;;;5033531;28;20176;-59
2023/07/07 04:34:00;;;;;;;0.80;0.80;;;;;12.90;96346.00;;;;5033106;28;20374;-59
2023/07/07 04:36:27;;;;;;;1.33;1.30;;;;;12.90;96338.00;;;;5033852;28;20573;-58
2023/07/07 04:38:54;;;;;;;1.00;1.00;;;;;12.90;96347.00;;;;5032535;28;20211;-61
2023/07/07 04:41:25;;;;;;;0.87;0.87;;;;;13.00;96351.00;;;;5034028;28;20224;-59
2023/07/07 04:43:54;;;;;;;1.23;1.23;;;;;13.20;96356.00;;;;5031640;28;20213;-59
2023/07/07 04:46:25;;;;;;;0.87;0.87;;;;;13.30;96352.00;;;;5032999;28;20295;-59
2023/07/07 04:48:53;;;;;;;1.43;1.33;;;;;13.40;96357.00;;;;5031487;28;20659;-59
2023/07/07 04:51:22;;;;;;;0.70;0.70;;;;;13.40;96347.00;;;;5032783;28;20223;-59
2023/07/07 04:53:49;;;;;;;1.13;1.13;;;;;13.60;96357.00;;;;5033165;28;20199;-60
2023/07/07 04:56:19;;;;;;;1.77;1.17;;;;;13.70;96355.00;;;;5032936;28;20213;-59
2023/07/07 04:58:49;;;;;;;1.43;1.33;;;;;13.60;96359.00;;;;5033224;28;20250;-59
2023/07/07 05:01:20;;;;;;;1.20;1.20;;;;;13.60;96361.00;;;;5033386;28;20185;-59
2023/07/07 05:03:50;;;;;;;1.53;1.43;;;;;13.60;96357.00;;;;5032679;28;20219;-59
2023/07/07 05:06:17;;;;;;;0.70;0.70;;;;;13.50;96356.00;;;;5032752;28;20224;-59
2023/07/07 05:08:46;;;;;;;1.07;1.07;;;;;13.50;96359.00;;;;5032941;28;20188;-60
2023/07/07 05:11:16;;;;;;;7.97;6.80;;;;;13.50;96354.00;;;;5032901;28;20235;-60
2023/07/07 05:13:45;;;;;;;11.40;4.53;;;;;13.60;96361.00;;;;5032560;28;20556;-60
2023/07/07 05:16:14;;;;;;;1.33;1.33;;;;;13.70;96355.00;;;;5032784;28;20213;-60
2023/07/07 05:18:42;;;;;;;0.93;0.93;;;;;13.80;96355.00;;;;5032759;28;20655;-60
2023/07/07 05:21:12;;;;;;;0.70;0.70;;;;;13.90;96354.00;;;;5032835;28;20197;-59
2023/07/07 05:23:40;;;;;;;1.67;1.00;;;;;13.90;96354.00;;;;5032422;28;20683;-60
2023/07/07 05:26:08;;;;;;;0.70;0.70;;;;;13.80;96357.00;;;;5032729;28;20308;-60
2023/07/07 05:28:36;;;;;;;0.63;0.63;;;;;13.70;96357.00;;;;5032553;28;20208;-60
2023/07/07 05:31:06;;;;;;;1.13;1.13;;;;;13.90;96369.00;;;;5032994;28;20196;-59
2023/07/07 05:33:33;;;;;;;1.50;1.40;;;;;14.00;96363.00;;;;5032431;28;20219;-58
2023/07/07 05:36:02;;;;;;;1.50;1.40;;;;;14.10;96352.00;;;;5032313;28;20192;-59
2023/07/07 05:38:30;;;;;;;1.33;1.23;;;;;14.10;96352.00;;;;5032288;28;20200;-59
2023/07/07 05:40:58;;;;;;;0.83;0.83;;;;;14.30;96357.00;;;;5032389;28;20193;-59
2023/07/07 05:43:27;;;;;;;1.00;1.00;;;;;14.40;96356.00;;;;5032189;28;20188;-59
2023/07/07 05:45:56;;;;;;;1.03;1.03;;;;;14.50;96352.00;;;;5032233;28;20220;-59
2023/07/07 05:48:24;;;;;;;1.33;1.30;;;;;14.60;96360.00;;;;5032309;28;20221;-59
2023/07/07 05:50:54;;;;;;;1.10;1.10;;;;;14.70;96358.00;;;;5032204;28;20189;-59
2023/07/07 05:53:22;;;;;;;0.90;0.90;;;;;14.90;96367.00;;;;5032466;28;20208;-59
2023/07/07 05:55:49;;;;;;;1.00;1.00;;;;;14.90;96364.00;;;;5030891;28;20224;-59
2023/07/07 05:58:18;;;;;;;0.60;0.60;;;;;15.00;96369.00;;;;5032255;28;20200;-59
2023/07/07 06:00:47;;;;;;;0.97;0.97;;;;;15.10;96372.00;;;;5033083;28;20199;-59
2023/07/07 06:03:14;;;;;;;1.60;1.50;;;;;15.20;96368.00;;;;5035849;28;20193;-59
2023/07/07 06:05:43;;;;;;;1.20;1.00;;;;;15.20;96374.00;;;;5036382;28;20228;-59
2023/07/07 06:08:10;;;;;;;1.40;1.30;;;;;15.30;96377.00;;;;5035667;28;20227;-58
2023/07/07 06:10:38;;;;;;;2.93;1.27;;;;;15.60;96377.00;;;;5036256;28;20220;-58
2023/07/07 06:13:05;;;;;;;0.90;0.90;;;;;15.70;96374.00;;;;5035743;28;20185;-58
2023/07/07 06:15:32;;;;;;;0.90;0.90;;;;;15.90;96375.00;;;;5035854;28;20200;-59
2023/07/07 06:18:01;;;;;;;13.13;1.83;;;;;16.10;96377.00;;;;5035585;28;20303;-58
2023/07/07 06:20:29;;;;;;;1.00;1.00;;;;;16.10;96379.00;;;;5035652;28;20252;-57
2023/07/07 06:22:57;;;;;;;1.10;1.10;;;;;16.30;96378.00;;;;5035511;28;20189;-58
2023/07/07 06:25:24;;;;;;;1.27;1.27;;;;;16.40;96376.00;;;;5035488;28;20213;-58
2023/07/07 06:27:52;;;;;;;0.90;0.90;;;;;16.60;96380.00;;;;5034445;28;20228;-58
2023/07/07 06:30:20;;;;;;;0.70;0.70;;;;;16.70;96377.00;;;;5035501;28;20228;-58
2023/07/07 06:32:48;;;;;;;0.80;0.80;;;;;16.80;96387.00;;;;5035304;28;20204;-58
2023/07/07 06:35:17;;;;;;;0.80;0.80;;;;;16.80;96382.00;;;;5035153;28;20192;-58
2023/07/07 06:37:45;;;;;;;3.60;1.20;;;;;17.00;96386.00;;;;5035202;28;20213;-58
2023/07/07 06:40:14;;;;;;;0.80;0.80;;;;;17.10;96391.00;;;;5035432;28;20220;-58
2023/07/07 06:42:41;;;;;;;0.77;0.77;;;;;17.10;96389.00;;;;5035151;28;20204;-58
2023/07/07 06:45:09;;;;;;;1.33;1.23;;;;;17.20;96391.00;;;;5035265;28;20264;-58
2023/07/07 06:47:37;;;;;;;1.27;1.17;;;;;17.40;96398.00;;;;5033684;28;20217;-58
2023/07/07 06:50:05;;;;;;;0.70;0.70;;;;;17.50;96389.00;;;;5035119;28;20197;-58
2023/07/07 06:52:34;;;;;;;1.53;1.47;;;;;17.70;96397.00;;;;5034983;28;20189;-58
2023/07/07 06:55:01;;;;;;;0.80;0.80;;;;;17.90;96384.00;;;;5034956;28;20699;-58
2023/07/07 06:57:29;;;;;;;0.80;0.80;;;;;18.00;96389.00;;;;5034990;28;20303;-58
2023/07/07 06:59:56;;;;;;;0.97;0.97;;;;;18.10;96398.00;;;;5035104;28;20193;-58
2023/07/07 07:02:23;;;;;;;0.77;0.77;;;;;18.20;96398.00;;;;5035118;28;20623;-58
2023/07/07 07:04:51;;;;;;;1.30;1.20;;;;;18.40;96393.00;;;;5033477;28;20216;-58
2023/07/07 07:07:18;;;;;;;1.17;1.17;;;;;18.50;96400.00;;;;5033322;28;20228;-58
2023/07/07 07:09:47;;;;;;;0.70;0.70;;;;;18.70;96401.00;;;;5034680;28;20193;-58
2023/07/07 07:12:15;;;;;;;0.63;0.63;;;;;18.90;96398.00;;;;5034146;28;20193;-58
2023/07/07 07:14:42;;;;;;;1.27;1.17;;;;;18.90;96397.00;;;;5034565;28;20666;-59
2023/07/07 07:17:10;;;;;;;0.90;0.90;;;;;19.20;96395.00;;;;5034584;28;20223;-59
2023/07/07 07:19:38;;;;;;;0.90;0.90;;;;;19.30;96398.00;;;;5034547;28;20199;-58
2023/07/07 07:22:06;;;;;;;9.67;1.17;;;;;19.40;96403.00;;;;5035037;28;20231;-59
2023/07/07 07:24:33;;;;;;;1.50;1.40;;;;;19.60;96393.00;;;;5034339;28;20718;-59
2023/07/07 07:27:02;;;;;;;0.70;0.70;;;;;19.70;96391.00;;;;5034321;28;20216;-58
2023/07/07 07:29:29;;;;;;;3.07;1.40;;;;;19.90;96395.00;;;;5034511;28;20201;-58
2023/07/07 07:31:57;;;;;;;2.33;1.03;;;;;20.20;96393.00;;;;5034230;28;20679;-58
2023/07/07 07:34:27;;;;;;;0.90;0.90;;;;;20.20;96395.00;;;;5034428;28;20203;-59
2023/07/07 07:36:55;;;;;;;0.90;0.90;;;;;20.30;96388.00;;;;5034243;28;20307;-59
2023/07/07 07:39:24;;;;;;;1.00;1.00;;;;;20.30;96391.00;;;;5034040;28;20296;-59
2023/07/07 07:41:53;;;;;;;1.80;1.47;;;;;20.60;96392.00;;;;5034348;28;20189;-58
2023/07/07 07:44:23;;;;;;;1.97;1.20;;;;;20.60;96390.00;;;;5034599;28;20231;-58
2023/07/07 07:46:53;;;;;;;0.83;0.83;;;;;20.80;96392.00;;;;5034000;28;20243;-59
2023/07/07 07:49:21;;;;;;;1.48;1.38;;;;;21.00;96392.00;;;;5034158;28;20200;-58
2023/07/07 07:51:48;;;;;;;1.08;0.82;;;;;21.20;96388.00;;;;5033932;28;20202;-59
2023/07/07 07:54:18;;;;;;;0.90;0.90;;;;;21.20;96390.00;;;;5033806;28;20659;-59
2023/07/07 07:56:46;;;;;;;1.33;1.23;;;;;21.30;96389.00;;;;5033704;28;20283;-59
2023/07/07 07:59:14;;;;;;;1.25;1.20;;;;;21.50;96391.00;;;;5033683;28;20193;-59
2023/07/07 08:01:44;;;;;;;0.98;0.98;;;;;21.80;96392.00;;;;5033996;28;20189;-59
2023/07/07 08:04:11;;;;;;;0.65;0.65;;;;;21.80;96400.00;;;;5034039;28;20201;-59
2023/07/07 08:06:39;;;;;;;0.70;0.70;;;;;21.90;96398.00;;;;5048266;22;20248;-61
2023/07/07 08:09:07;;;;;;;1.38;1.27;;;;;22.00;96394.00;;;;5053713;28;20173;-61
2023/07/07 08:11:54;;;;;;;1.13;0.85;;;;;22.20;96394.00;;;;5053670;28;20192;-61
2023/07/07 08:14:29;;;;;;;1.42;1.33;;;;;22.30;96389.00;;;;5053565;28;20274;-61
2023/07/07 08:17:02;;;;;;;1.50;1.40;;;;;22.40;96394.00;;;;5054165;28;20580;-61
2023/07/07 08:19:31;;;;;;;0.82;0.82;;;;;22.40;96390.00;;;;5054284;28;20181;-61
2023/07/07 08:21:59;;;;;;;3.20;1.48;;;;;22.70;96394.00;;;;5053695;28;20192;-61
2023/07/07 08:24:27;;;;;;;1.10;1.10;;;;;22.80;96395.00;;;;5051196;28;20272;-61
2023/07/07 08:26:54;;;;;;;0.93;0.93;;;;;22.90;96394.00;;;;5053308;28;20212;-60
2023/07/07 08:29:22;;;;;;;0.95;0.95;;;;;22.90;96393.00;;;;5052632;28;20227;-60
2023/07/07 08:31:49;;;;;;;1.25;1.17;;;;;23.20;96392.00;;;;5053291;28;20199;-61
2023/07/07 08:34:19;;;;;;;1.02;0.90;;;;;23.30;96385.00;;;;5054018;28;20223;-60
2023/07/07 08:36:47;;;;;;;0.80;0.80;;;;;23.60;96393.00;;;;5052223;28;20694;-60
2023/07/07 08:39:16;;;;;;;1.23;1.23;;;;;23.70;96392.00;;;;5053098;28;20192;-60
2023/07/07 08:41:49;;;;;;;1.10;1.10;;;;;23.70;96389.00;;;;5053084;28;20192;-60
2023/07/07 08:44:20;;;;;;;0.98;0.98;;;;;23.50;96387.00;;;;5053264;28;20180;-60
2023/07/07 08:47:08;;;;;;;1.25;1.23;;;;;23.50;96391.00;;;;5053162;28;20300;-60
2023/07/07 08:49:52;;;;;;;1.10;1.00;;;;;23.80;96389.00;;;;5053957;28;20188;-60
2023/07/07 08:52:29;;;;;;;3.72;1.80;;;;;24.10;96396.00;;;;5053225;28;20180;-61
2023/07/07 08:55:02;;;;;;;0.75;0.75;;;;;24.30;96401.00;;;;5053515;28;20597;-61
2023/07/07 08:57:36;;;;;;;1.30;1.27;;;;;24.10;96392.00;;;;5053488;28;20565;-61
2023/07/07 09:00:11;;;;;;;1.20;1.17;;;;;24.20;96390.00;;;;5053171;28;20617;-61
2023/07/07 09:03:14;;;;;;;1.40;1.17;;;;;24.30;96392.00;;;;5053374;28;20183;-61
2023/07/07 09:05:57;;;;;;;2.85;2.58;;;;;24.50;96391.00;;;;5031465;28;20246;-60
2023/07/07 09:08:34;;;;;;;0.65;0.65;;;;;24.60;96390.00;;;;5052524;28;20590;-60
2023/07/07 09:11:13;;;;;;;1.50;1.23;;;;;24.50;96389.00;;;;5053526;28;20620;-60
2023/07/07 09:13:42;;;;;;;2.17;1.48;;;;;24.60;96394.00;;;;5052674;28;20646;-60
2023/07/07 09:16:18;;;;;;;1.65;1.00;;;;;24.70;96389.00;;;;5052553;28;20192;-60
2023/07/07 09:18:53;;;;;;;1.05;1.02;;;;;24.80;96388.00;;;;5052837;28;20184;-59
2023/07/07 09:21:30;;;;;;;1.25;1.15;;;;;25.00;96385.00;;;;5052581;28;20210;-60
2023/07/07 09:24:03;;;;;;;2.13;1.98;;;;;24.60;96389.00;;;;5052553;28;20191;-60
2023/07/07 09:26:32;;;;;;;0.77;0.77;;;;;24.60;96391.00;;;;5052658;28;20306;-60
2023/07/07 09:29:04;;;;;;;1.52;1.42;;;;;25.00;96395.00;;;;5052464;28;20196;-60
2023/07/07 09:31:37;;;;;;;1.55;1.45;;;;;25.00;96391.00;;;;5052437;28;20173;-60
2023/07/07 09:34:05;;;;;;;1.50;1.40;;;;;25.00;96389.00;;;;5052942;28;20177;-60
2023/07/07 09:36:38;;;;;;;1.27;1.27;;;;;25.10;96389.00;;;;5054686;28;20537;-59
2023/07/07 09:39:29;;;;;;;1.23;1.23;;;;;25.00;96383.00;;;;5056457;28;20180;-59
2023/07/07 09:42:15;;;;;;;1.45;1.35;;;;;25.20;96382.00;;;;5056695;28;20184;-61
2023/07/07 09:45:06;;;;;;;0.95;0.95;;;;;25.40;96386.00;;;;5056653;28;20180;-61
2023/07/07 09:47:40;;;;;;;1.63;1.52;;;;;25.30;96385.00;;;;5056791;28;20645;-61
2023/07/07 09:50:14;;;;;;;1.08;1.02;;;;;25.30;96379.00;;;;5056390;28;20184;-60
2023/07/07 09:52:48;;;;;;;0.77;0.77;;;;;25.50;96381.00;;;;5056415;28;20610;-60
2023/07/07 09:55:20;;;;;;;4.80;1.50;;;;;25.70;96384.00;;;;5056166;28;20180;-61
2023/07/07 09:58:03;;;;;;;1.77;1.48;;;;;25.50;96387.00;;;;5056089;28;20224;-60
2023/07/07 10:00:33;;;;;;;1.27;1.25;;;;;25.60;96384.00;;;;5056081;28;20185;-60
2023/07/07 10:03:02;;;;;;;1.15;1.08;;;;;25.50;96384.00;;;;5056256;28;20184;-60
2023/07/07 10:05:35;;;;;;;2.38;2.15;;;;;25.70;96376.00;;;;5055824;28;20208;-60
2023/07/07 10:08:07;;;;;;;0.88;0.88;;;;;25.80;96371.00;;;;5055871;28;20540;-60
2023/07/07 10:10:35;;;;;;;1.40;1.33;;;;;26.10;96376.00;;;;5056173;28;20182;-60
2023/07/07 10:13:02;;;;;;;3.33;1.77;;;;;25.80;96368.00;;;;5054524;28;20196;-60
2023/07/07 10:15:45;;;;;;;3.47;1.60;;;;;26.10;96373.00;;;;5056105;28;20563;-61
2023/07/07 10:18:17;;;;;;;1.02;1.02;;;;;26.20;96372.00;;;;5055812;28;20285;-60
2023/07/07 10:20:44;;;;;;;1.25;1.25;;;;;26.30;96374.00;;;;5056394;28;20180;-60
2023/07/07 10:23:15;;;;;;;1.70;1.60;;;;;26.50;96378.00;;;;5055779;28;20207;-60
2023/07/07 10:25:44;;;;;;;1.20;1.20;;;;;26.40;96370.00;;;;5055466;28;20315;-60
2023/07/07 10:28:15;;;;;;;1.25;1.17;;;;;26.60;96365.00;;;;5055481;28;20208;-60
2023/07/07 10:30:43;;;;;;;1.73;1.63;;;;;26.70;96370.00;;;;5055815;28;20188;-60
2023/07/07 10:33:14;;;;;;;1.80;1.58;;;;;26.70;96365.00;;;;5055392;28;20659;-60
2023/07/07 10:35:42;;;;;;;2.08;1.95;;;;;27.00;96372.00;;;;5055588;28;20173;-60
2023/07/07 10:38:12;;;;;;;1.70;1.60;;;;;27.00;96377.00;;;;5055392;28;20231;-60
2023/07/07 10:40:42;;;;;;;0.93;0.93;;;;;27.20;96371.00;;;;5055473;28;20196;-60
2023/07/07 10:43:13;;;;;;;1.15;1.10;;;;;27.30;96375.00;;;;5055168;28;20250;-60
2023/07/07 10:45:45;;;;;;;1.30;1.30;;;;;27.40;96375.00;;;;5055128;28;20342;-60
2023/07/07 10:48:14;;;;;;;2.30;2.03;;;;;27.40;96387.00;;;;5054260;28;20273;-61
2023/07/07 10:50:58;;;;;;;1.65;1.55;;;;;27.40;96387.00;;;;5055388;28;20197;-60
2023/07/07 10:53:46;;;;;;;2.00;1.90;;;;;27.50;96379.00;;;;5055699;28;20176;-61
2023/07/07 10:56:29;;;;;;;1.73;1.63;;;;;27.50;96379.00;;;;5055481;28;20179;-60
2023/07/07 10:59:33;;;;;;;2.13;1.92;;;;;27.40;96388.00;;;;5055045;28;20624;-60
2023/07/07 11:02:19;;;;;;;1.30;1.25;;;;;27.50;96387.00;;;;5055304;28;20185;-60
2023/07/07 11:05:19;;;;;;;1.33;1.30;;;;;27.50;96383.00;;;;5055312;28;20258;-60
2023/07/07 11:07:59;;;;;;;1.80;1.67;;;;;27.70;96380.00;;;;5055113;28;20227;-60
2023/07/07 11:10:50;;;;;;;3.72;2.38;;;;;28.10;96381.00;;;;5053593;28;20200;-60
2023/07/07 11:13:28;;;;;;;1.52;1.42;;;;;28.10;96374.00;;;;5055159;28;20184;-60
2023/07/07 11:16:01;;;;;;;1.35;1.20;;;;;28.00;96366.00;;;;5054713;28;20168;-60
2023/07/07 11:18:45;;;;;;;4.55;2.05;;;;;28.40;96369.00;;;;5054585;28;20573;-59
2023/07/07 11:21:22;;;;;;;2.30;2.15;;;;;28.70;96363.00;;;;5054704;28;20191;-60
2023/07/07 11:24:10;;;;;;;2.17;1.80;;;;;28.90;96359.00;;;;5054554;28;20183;-60
2023/07/07 11:26:52;;;;;;;1.60;1.50;;;;;28.90;96353.00;;;;5054873;28;20262;-60
2023/07/07 11:29:29;;;;;;;1.73;1.63;;;;;29.30;96357.00;;;;5054720;28;20646;-60
2023/07/07 11:32:11;;;;;;;2.70;2.00;;;;;29.20;96353.00;;;;5054750;28;20187;-60
2023/07/07 11:34:53;;;;;;;1.63;1.52;;;;;29.10;96359.00;;;;5054553;28;20234;-59
2023/07/07 11:37:41;;;;;;;1.33;1.27;;;;;28.40;96352.00;;;;5054772;28;20223;-60
2023/07/07 11:40:43;;;;;;;2.20;1.83;;;;;28.60;96343.00;;;;5054711;28;20288;-60
2023/07/07 11:43:34;;;;;;;1.65;1.55;;;;;28.70;96346.00;;;;5052985;28;20199;-59
2023/07/07 11:46:16;;;;;;;2.03;1.92;;;;;28.90;96344.00;;;;5054415;28;20222;-59
2023/07/07 11:48:58;;;;;;;1.45;1.35;;;;;28.90;96332.00;;;;5052952;28;20192;-60
2023/07/07 11:51:36;;;;;;;2.15;1.40;;;;;29.10;96344.00;;;;5054461;28;20184;-60
2023/07/07 11:54:31;;;;;;;1.75;1.65;;;;;29.50;96331.00;;;;5054320;28;20180;-60
2023/07/07 11:57:34;;;;;;;1.63;1.52;;;;;29.60;96336.00;;;;5054071;28;20563;-60
2023/07/07 12:00:18;;;;;;;2.55;1.63;;;;;29.50;96331.00;;;;5043516;28;20207;-61
2023/07/07 12:02:49;;;;;;;1.48;1.38;;;;;29.50;96333.00;;;;5054401;28;20255;-60
2023/07/07 12:05:27;;;;;;;1.13;1.13;;;;;29.60;96332.00;;;;5053978;28;20661;-60
2023/07/07 12:08:00;;;;;;;1.20;1.20;;;;;29.70;96326.00;;;;5053567;28;20215;-60
2023/07/07 12:10:32;;;;;;;3.00;1.98;;;;;30.10;96320.00;;;;5054084;28;20192;-61
2023/07/07 12:13:04;;;;;;;0.93;0.93;;;;;30.00;96324.00;;;;5053692;28;20623;-60
2023/07/07 12:15:37;;;;;;;2.58;1.77;;;;;30.30;96328.00;;;;5053712;28;20188;-60
2023/07/07 12:18:11;;;;;;;3.55;2.75;;;;;30.10;96323.00;;;;5053408;28;20679;-60
2023/07/07 12:20:44;;;;;;;2.47;2.28;;;;;30.30;96316.00;;;;5053399;28;20207;-60
2023/07/07 12:23:16;;;;;;;5.53;1.60;;;;;30.30;96326.00;;;;5053404;28;20180;-59
2023/07/07 12:25:46;;;;;;;0.77;0.77;;;;;30.30;96321.00;;;;5053361;28;20204;-60
2023/07/07 12:28:15;;;;;;;1.52;1.33;;;;;30.20;96323.00;;;;5053296;28;20219;-60
2023/07/07 12:30:47;;;;;;;1.40;1.30;;;;;30.70;96321.00;;;;5053297;28;20203;-60
2023/07/07 12:33:17;;;;;;;19.90;1.25;;;;;30.60;96327.00;;;;5053286;28;20188;-60
2023/07/07 12:35:52;;;;;;;2.92;1.83;;;;;30.90;96315.00;;;;5053131;28;20188;-60
2023/07/07 12:38:26;;;;;;;1.20;1.20;;;;;31.10;96291.00;;;;5053164;28;20262;-60
2023/07/07 12:40:56;;;;;;;1.23;1.23;;;;;31.20;96307.00;;;;5053518;28;20215;-61